Time;durP1;ratioP1;P1;durP2;ratioP2;P2;SDS_P1;SDS_P2;PMS_P1;PMS_P2;Temp;Humidity;BMP_temperature;BMP_pressure;BME280_temperature;BME280_humidity;BME280_pressure;Samples;Min_cycle;Max_cycle;Signal;HPM_P1;HPM_P2
2023/01/15 00:01:28;;;;;;;3.90;1.13;;;6.30;99.90;;;;;;5088637;28;20071;-80
2023/01/15 00:03:55;;;;;;;2.67;1.08;;;6.20;99.90;;;;;;5089156;28;20453;-83
2023/01/15 00:06:22;;;;;;;3.83;1.50;;;6.20;99.90;;;;;;5078368;28;20044;-81
2023/01/15 00:08:49;;;;;;;5.72;1.10;;;6.20;99.90;;;;;;5076490;28;20044;-81
2023/01/15 00:11:16;;;;;;;3.28;1.15;;;6.20;99.90;;;;;;5066934;28;20044;-81
2023/01/15 00:13:42;;;;;;;4.25;0.90;;;6.20;99.90;;;;;;5084403;28;20071;-76
2023/01/15 00:16:12;;;;;;;4.50;1.35;;;6.20;99.90;;;;;;5083295;28;20617;-79
2023/01/15 00:18:38;;;;;;;2.05;1.00;;;6.20;99.90;;;;;;5069087;28;20068;-80
2023/01/15 00:21:07;;;;;;;3.22;1.00;;;6.20;99.90;;;;;;5070374;28;20063;-77
2023/01/15 00:29:04;;;;;;;5.53;2.08;;;6.20;99.90;;;;;;5075590;28;20053;-81
2023/01/15 00:31:31;;;;;;;4.70;1.00;;;6.30;99.90;;;;;;5086710;28;20086;-81
2023/01/15 00:33:57;;;;;;;4.88;1.30;;;6.20;99.90;;;;;;5061401;28;20045;-82
2023/01/15 00:36:24;;;;;;;6.80;1.50;;;6.20;99.90;;;;;;5059540;28;20121;-82
2023/01/15 00:38:50;;;;;;;4.95;1.20;;;6.30;99.90;;;;;;5095110;28;20075;-80
2023/01/15 00:41:16;;;;;;;4.38;1.23;;;6.30;99.90;;;;;;5072731;28;20052;-84
2023/01/15 00:43:41;;;;;;;4.45;1.27;;;6.30;99.90;;;;;;5092020;28;20040;-81
2023/01/15 00:46:07;;;;;;;4.05;1.38;;;6.20;99.90;;;;;;5066837;28;20044;-81
2023/01/15 00:48:37;;;;;;;5.00;1.33;;;6.30;99.90;;;;;;5070353;28;20130;-83
2023/01/15 00:51:03;;;;;;;3.78;1.33;;;6.30;99.90;;;;;;5090602;28;20060;-81
2023/01/15 00:53:29;;;;;;;4.28;1.40;;;6.30;99.90;;;;;;5049259;28;20044;-83
2023/01/15 00:55:55;;;;;;;4.82;1.27;;;6.30;99.90;;;;;;5088429;28;20491;-83
2023/01/15 00:58:21;;;;;;;5.35;1.20;;;6.30;99.90;;;;;;5053270;28;20048;-81
2023/01/15 01:00:56;;;;;;;4.47;1.33;;;6.30;99.90;;;;;;5079351;28;20489;-82
2023/01/15 01:03:23;;;;;;;3.92;1.13;;;6.30;99.90;;;;;;5086162;28;20083;-81
2023/01/15 01:05:49;;;;;;;3.45;1.13;;;6.30;99.90;;;;;;5066986;28;20048;-84
2023/01/15 01:08:15;;;;;;;3.88;1.25;;;6.30;99.90;;;;;;5064227;28;20051;-83
2023/01/15 01:10:41;;;;;;;5.97;1.65;;;6.30;99.90;;;;;;5081259;28;20573;-79
2023/01/15 01:13:07;;;;;;;4.28;1.60;;;6.30;99.90;;;;;;5098832;28;20052;-79
2023/01/15 01:15:35;;;;;;;4.95;1.10;;;6.20;99.90;;;;;;5080266;28;20044;-79
2023/01/15 01:18:01;;;;;;;6.03;1.83;;;6.30;99.90;;;;;;5082857;28;20055;-78
2023/01/15 01:20:27;;;;;;;4.32;1.25;;;6.30;99.90;;;;;;5090595;28;20047;-82
2023/01/15 01:22:52;;;;;;;5.20;1.48;;;6.30;99.90;;;;;;5047567;28;20522;-82
2023/01/15 01:25:18;;;;;;;4.65;1.27;;;6.30;99.90;;;;;;5048850;28;20432;-82
2023/01/15 01:27:45;;;;;;;4.18;1.30;;;6.20;99.90;;;;;;5081456;28;20072;-80
2023/01/15 01:30:12;;;;;;;4.60;1.17;;;6.20;99.90;;;;;;5078464;28;20078;-83
2023/01/15 01:32:38;;;;;;;3.47;1.45;;;6.20;99.90;;;;;;5079962;28;20083;-80
2023/01/15 01:35:04;;;;;;;5.28;1.20;;;6.20;99.90;;;;;;5079895;28;20041;-82
2023/01/15 01:37:30;;;;;;;4.68;1.42;;;6.20;99.90;;;;;;5067523;28;20045;-79
2023/01/15 01:39:56;;;;;;;4.78;1.23;;;6.30;99.90;;;;;;5078464;28;20119;-80
2023/01/15 01:42:22;;;;;;;4.32;1.20;;;6.20;99.90;;;;;;5066890;28;20113;-82
2023/01/15 01:44:48;;;;;;;4.00;1.88;;;6.20;99.90;;;;;;5080522;28;20056;-79
2023/01/15 01:47:26;;;;;;;4.47;1.10;;;6.20;99.90;;;;;;5078614;28;20044;-78
2023/01/15 01:49:56;;;;;;;6.45;1.20;;;6.20;99.90;;;;;;5080025;28;20057;-83
2023/01/15 01:52:54;;;;;;;3.95;1.33;;;6.20;99.90;;;;;;5082536;28;20218;-82
2023/01/15 01:55:22;;;;;;;9.07;1.73;;;6.20;99.90;;;;;;5058470;28;20052;-84
2023/01/15 01:57:50;;;;;;;3.95;1.25;;;6.20;99.90;;;;;;5096632;28;20056;-85
2023/01/15 02:00:17;;;;;;;4.50;1.23;;;6.20;99.90;;;;;;5061784;28;20045;-83
2023/01/15 02:02:46;;;;;;;5.53;1.20;;;6.10;99.90;;;;;;5087430;28;20063;-78
2023/01/15 02:05:24;;;;;;;5.03;1.48;;;6.20;99.90;;;;;;5081837;28;20602;-83
2023/01/15 02:07:50;;;;;;;4.75;1.35;;;6.10;99.90;;;;;;5077411;28;20098;-80
2023/01/15 02:10:16;;;;;;;3.00;1.38;;;6.10;99.90;;;;;;5080199;28;20048;-82
2023/01/15 02:12:49;;;;;;;5.65;1.23;;;6.20;99.90;;;;;;5084006;28;20044;-81
2023/01/15 02:15:21;;;;;;;3.88;1.00;;;6.20;99.90;;;;;;5084683;28;20058;-78
2023/01/15 02:18:11;;;;;;;4.85;1.70;;;6.20;99.90;;;;;;5062416;28;20056;-81
2023/01/15 02:20:44;;;;;;;3.83;1.25;;;6.20;99.90;;;;;;5078081;28;20087;-77
2023/01/15 02:23:51;;;;;;;5.47;1.60;;;6.20;99.90;;;;;;5079583;28;20088;-80
2023/01/15 02:26:35;;;;;;;3.87;1.10;;;6.20;99.90;;;;;;5041608;28;20049;-79
2023/01/15 02:29:06;;;;;;;5.85;1.30;;;6.20;99.90;;;;;;5065238;28;20295;-79
2023/01/15 02:31:35;;;;;;;5.47;1.20;;;6.30;99.90;;;;;;5079127;28;20049;-81
2023/01/15 02:34:36;;;;;;;4.80;1.05;;;6.20;99.90;;;;;;5077318;28;20052;-81
2023/01/15 02:37:08;;;;;;;4.35;1.48;;;6.20;99.90;;;;;;5052871;28;20112;-80
2023/01/15 02:39:37;;;;;;;4.40;1.00;;;6.10;99.90;;;;;;5091091;28;20052;-81
2023/01/15 02:42:06;;;;;;;6.45;1.77;;;6.10;99.90;;;;;;5091847;28;20045;-80
2023/01/15 02:44:36;;;;;;;4.68;1.13;;;6.10;99.90;;;;;;5079257;28;20036;-80
2023/01/15 02:47:04;;;;;;;3.15;1.38;;;6.10;99.90;;;;;;5110989;28;20063;-78
2023/01/15 02:49:31;;;;;;;8.32;1.35;;;6.10;99.90;;;;;;5084615;28;20524;-75
2023/01/15 02:52:13;;;;;;;5.43;1.50;;;6.00;99.90;;;;;;5061343;28;20119;-80
2023/01/15 02:54:47;;;;;;;4.88;1.50;;;6.10;99.90;;;;;;5077104;28;20074;-79
2023/01/15 02:57:15;;;;;;;4.30;1.40;;;6.10;99.90;;;;;;5069315;28;20108;-80
2023/01/15 02:59:44;;;;;;;6.53;1.38;;;6.10;99.90;;;;;;5076840;28;20041;-78
2023/01/15 03:02:16;;;;;;;5.03;1.42;;;6.10;99.90;;;;;;5061800;28;20060;-81
2023/01/15 03:05:05;;;;;;;4.88;1.25;;;6.10;99.90;;;;;;5072042;28;20045;-80
2023/01/15 03:07:41;;;;;;;5.22;1.42;;;6.00;99.90;;;;;;5076774;28;20526;-76
2023/01/15 03:10:07;;;;;;;;;;;6.00;99.90;;;;;;5084075;28;20044;-78
2023/01/15 03:13:01;;;;;;;3.27;1.50;;;6.00;99.90;;;;;;5088532;28;19930;-82
2023/01/15 03:18:28;;;;;;;4.55;1.75;;;6.10;99.90;;;;;;5081949;28;20096;-77
2023/01/15 03:20:59;;;;;;;4.32;1.35;;;6.10;99.90;;;;;;5076791;28;20104;-80
2023/01/15 03:23:27;;;;;;;3.25;1.45;;;6.00;99.90;;;;;;5083706;28;20718;-85
2023/01/15 03:25:53;;;;;;;5.03;1.63;;;6.00;99.90;;;;;;5062884;28;20053;-79
2023/01/15 03:28:23;;;;;;;4.93;1.60;;;6.00;99.90;;;;;;5096546;28;20084;-79
2023/01/15 03:30:50;;;;;;;5.55;1.38;;;6.00;99.90;;;;;;5083759;28;20039;-78
2023/01/15 03:33:17;;;;;;;5.40;1.65;;;6.00;99.90;;;;;;5077283;28;20437;-77
2023/01/15 03:35:56;;;;;;;6.18;1.40;;;6.00;99.90;;;;;;5089771;28;20051;-79
2023/01/15 03:38:28;;;;;;;4.75;1.27;;;6.00;99.90;;;;;;5060152;28;20096;-77
2023/01/15 03:41:19;;;;;;;6.70;1.30;;;6.00;99.90;;;;;;5077935;28;20047;-81
2023/01/15 03:44:12;;;;;;;4.43;1.60;;;6.00;99.90;;;;;;5080640;28;20097;-81
2023/01/15 03:46:50;;;;;;;4.40;1.30;;;6.00;99.90;;;;;;5076003;28;20075;-79
2023/01/15 03:49:21;;;;;;;3.55;1.42;;;6.00;99.90;;;;;;5078196;28;20504;-79
2023/01/15 03:52:15;;;;;;;3.20;1.42;;;5.90;99.90;;;;;;5076506;28;20044;-81
2023/01/15 03:54:49;;;;;;;9.05;1.85;;;5.90;99.90;;;;;;5059663;28;20044;-79
2023/01/15 03:58:03;;;;;;;6.38;1.58;;;5.90;99.90;;;;;;5078891;28;20137;-79
2023/01/15 04:00:37;;;;;;;8.63;2.03;;;6.00;99.90;;;;;;5042166;28;20045;-78
2023/01/15 04:03:06;;;;;;;5.15;1.70;;;5.90;99.90;;;;;;5106186;28;20056;-81
2023/01/15 04:05:33;;;;;;;7.95;2.33;;;5.90;99.90;;;;;;5077755;28;20043;-78
2023/01/15 04:08:00;;;;;;;4.93;1.85;;;5.90;99.90;;;;;;5075196;28;20048;-82
2023/01/15 04:10:26;;;;;;;7.45;1.60;;;5.90;99.90;;;;;;5066907;28;20083;-82
2023/01/15 04:12:51;;;;;;;4.43;1.38;;;5.90;99.90;;;;;;5086067;28;20421;-79
2023/01/15 04:15:17;;;;;;;7.15;2.00;;;5.80;99.90;;;;;;5076727;28;20063;-78
2023/01/15 04:17:43;;;;;;;7.63;1.50;;;5.90;99.90;;;;;;5059909;28;20037;-79
2023/01/15 04:20:10;;;;;;;6.10;1.45;;;5.90;99.90;;;;;;5059609;28;20045;-81
2023/01/15 04:22:36;;;;;;;7.43;1.67;;;5.90;99.90;;;;;;5060567;28;20052;-79
2023/01/15 04:25:03;;;;;;;4.75;1.58;;;5.90;99.90;;;;;;5042134;28;20041;-76
2023/01/15 04:27:29;;;;;;;3.80;1.30;;;5.90;99.90;;;;;;5077745;28;20104;-80
2023/01/15 04:29:54;;;;;;;5.93;1.40;;;5.90;99.90;;;;;;5089466;28;20083;-77
2023/01/15 04:32:20;;;;;;;6.53;1.40;;;5.90;99.90;;;;;;5062433;28;20049;-76
2023/01/15 04:34:46;;;;;;;5.38;1.60;;;5.90;99.90;;;;;;5059959;28;20040;-77
2023/01/15 04:37:12;;;;;;;5.38;1.60;;;5.90;99.90;;;;;;5080314;28;20624;-77
2023/01/15 04:39:37;;;;;;;4.97;1.30;;;5.90;99.90;;;;;;5060781;28;20043;-79
2023/01/15 04:44:47;;;;;;;4.85;2.03;;;5.90;99.90;;;;;;5079002;28;20053;-79
2023/01/15 04:47:13;;;;;;;4.40;1.17;;;5.90;99.90;;;;;;5069356;28;20140;-78
2023/01/15 04:49:39;;;;;;;5.15;1.55;;;5.90;99.90;;;;;;5097092;28;20036;-79
2023/01/15 04:52:05;;;;;;;7.65;1.70;;;5.90;99.90;;;;;;5076994;28;20044;-81
2023/01/15 04:54:31;;;;;;;4.18;1.40;;;5.90;99.90;;;;;;5075510;28;20108;-76
2023/01/15 04:56:56;;;;;;;6.95;1.67;;;5.90;99.90;;;;;;5059752;28;20086;-76
2023/01/15 04:59:25;;;;;;;6.55;1.67;;;5.90;99.90;;;;;;5074938;28;20057;-78
2023/01/15 05:01:51;;;;;;;5.18;1.30;;;5.90;99.90;;;;;;5078139;28;20044;-76
2023/01/15 05:04:17;;;;;;;4.30;1.20;;;5.90;99.90;;;;;;5095423;28;20040;-76
2023/01/15 05:06:43;;;;;;;6.97;1.50;;;5.90;99.90;;;;;;5090745;28;20055;-79
2023/01/15 05:09:09;;;;;;;6.07;1.50;;;5.80;99.90;;;;;;5075019;28;20053;-76
2023/01/15 05:11:36;;;;;;;4.80;1.38;;;5.90;99.90;;;;;;5081774;28;20132;-78
2023/01/15 05:14:02;;;;;;;5.13;1.48;;;5.90;99.90;;;;;;5076746;28;20048;-76
2023/01/15 05:16:29;;;;;;;5.70;1.70;;;5.90;99.90;;;;;;5088073;28;20052;-78
2023/01/15 05:19:02;;;;;;;6.85;1.80;;;5.90;99.90;;;;;;5063430;28;20037;-79
2023/01/15 05:21:30;;;;;;;6.40;1.50;;;5.90;99.90;;;;;;5100415;28;20076;-77
2023/01/15 05:23:57;;;;;;;5.78;1.55;;;5.90;99.90;;;;;;5076223;28;20051;-79
2023/01/15 05:26:24;;;;;;;4.68;1.85;;;5.90;99.90;;;;;;5079129;28;20040;-76
2023/01/15 05:28:53;;;;;;;4.57;1.42;;;5.80;99.90;;;;;;5079129;28;20067;-76
2023/01/15 05:31:19;;;;;;;6.10;1.35;;;5.80;99.90;;;;;;5090289;28;20041;-77
2023/01/15 05:33:46;;;;;;;6.47;1.50;;;5.80;99.90;;;;;;5061962;28;20115;-76
2023/01/15 05:36:23;;;;;;;6.35;1.45;;;5.80;99.90;;;;;;5080252;28;20040;-78
2023/01/15 05:38:50;;;;;;;4.43;1.63;;;5.80;99.90;;;;;;5091576;28;20119;-76
2023/01/15 05:44:08;;;;;;;6.97;1.75;;;5.80;99.90;;;;;;5091123;28;20067;-78
2023/01/15 05:46:36;;;;;;;4.63;1.20;;;5.70;99.90;;;;;;5086638;28;20051;-77
2023/01/15 05:49:04;;;;;;;5.60;1.40;;;5.70;99.90;;;;;;5087864;28;20058;-77
2023/01/15 05:51:30;;;;;;;4.68;1.60;;;5.60;99.90;;;;;;5098839;28;20058;-77
2023/01/15 05:53:57;;;;;;;3.95;1.80;;;5.60;99.90;;;;;;5086387;28;20047;-77
2023/01/15 05:56:22;;;;;;;3.33;1.40;;;5.60;99.90;;;;;;5086285;28;20059;-79
2023/01/15 05:58:48;;;;;;;5.53;1.30;;;5.60;99.90;;;;;;5099069;28;20502;-75
2023/01/15 06:01:14;;;;;;;5.00;1.60;;;5.50;99.90;;;;;;5070635;28;20064;-78
2023/01/15 06:03:43;;;;;;;3.03;1.10;;;5.60;99.90;;;;;;5075993;28;20029;-75
2023/01/15 06:06:17;;;;;;;4.78;1.35;;;5.50;99.90;;;;;;5081906;28;20048;-77
2023/01/15 06:08:43;;;;;;;3.28;1.10;;;5.50;99.90;;;;;;5064151;28;20056;-75
2023/01/15 06:11:10;;;;;;;3.78;1.17;;;5.50;99.90;;;;;;5086080;28;20040;-76
2023/01/15 06:13:38;;;;;;;4.50;1.20;;;5.50;99.90;;;;;;5091358;28;20408;-84
2023/01/15 06:16:04;;;;;;;4.53;1.00;;;5.60;99.90;;;;;;5078184;28;20063;-79
2023/01/15 06:18:32;;;;;;;4.35;0.90;;;5.50;99.90;;;;;;5047074;28;20087;-79
2023/01/15 06:21:03;;;;;;;4.05;1.13;;;5.50;99.90;;;;;;5077658;28;20057;-79
2023/01/15 06:23:29;;;;;;;4.05;1.10;;;5.60;99.90;;;;;;5079527;28;20076;-77
2023/01/15 06:25:58;;;;;;;4.13;0.95;;;5.50;99.90;;;;;;5104567;28;20138;-81
2023/01/15 06:28:23;;;;;;;3.03;1.15;;;5.40;99.90;;;;;;5062446;28;20086;-78
2023/01/15 06:30:49;;;;;;;4.22;1.02;;;5.40;99.90;;;;;;5062468;28;20466;-78
2023/01/15 06:33:15;;;;;;;3.83;0.90;;;5.40;99.90;;;;;;5077509;28;20083;-79
2023/01/15 06:35:40;;;;;;;4.13;1.20;;;5.20;99.90;;;;;;5076516;28;20115;-81
2023/01/15 06:38:06;;;;;;;4.65;1.20;;;5.20;99.90;;;;;;5039524;28;20598;-81
2023/01/15 06:40:32;;;;;;;4.72;1.30;;;5.30;99.90;;;;;;5051407;28;20068;-76
2023/01/15 06:48:27;;;;;;;6.38;1.10;;;5.40;99.90;;;;;;5059388;28;20382;-78
2023/01/15 06:50:55;;;;;;;4.93;1.45;;;5.40;99.90;;;;;;5072410;28;20515;-78
2023/01/15 06:53:21;;;;;;;6.80;1.48;;;5.40;99.90;;;;;;5087714;28;20036;-77
2023/01/15 06:55:47;;;;;;;3.33;1.27;;;5.30;99.90;;;;;;5077061;28;20055;-77
2023/01/15 06:58:13;;;;;;;5.82;1.50;;;5.30;99.90;;;;;;5078354;28;20095;-79
2023/01/15 07:00:43;;;;;;;7.03;1.90;;;5.30;99.90;;;;;;5078211;28;20404;-79
2023/01/15 07:03:13;;;;;;;4.20;1.23;;;5.20;99.90;;;;;;5077070;28;20059;-78
2023/01/15 07:05:41;;;;;;;4.38;1.20;;;5.30;99.90;;;;;;5058863;28;20109;-77
2023/01/15 07:08:06;;;;;;;5.22;1.52;;;5.40;99.90;;;;;;5106907;28;20041;-77
2023/01/15 07:10:35;;;;;;;5.10;1.48;;;5.40;99.90;;;;;;5061978;28;20048;-75
2023/01/15 07:13:01;;;;;;;3.28;1.00;;;5.40;99.90;;;;;;5076750;28;20104;-77
2023/01/15 07:15:27;;;;;;;4.63;1.30;;;5.30;99.90;;;;;;5078072;28;20049;-77
2023/01/15 07:17:54;;;;;;;5.35;1.40;;;5.30;99.90;;;;;;5078028;28;20446;-77
2023/01/15 07:20:20;;;;;;;3.83;1.65;;;5.20;99.90;;;;;;5076813;28;20033;-78
2023/01/15 07:22:52;;;;;;;2.97;1.05;;;5.20;99.90;;;;;;5088957;28;20047;-76
2023/01/15 07:25:18;;;;;;;6.32;1.23;;;5.30;99.90;;;;;;5092640;28;20464;-76
2023/01/15 07:27:47;;;;;;;4.35;1.08;;;5.30;99.90;;;;;;5078300;28;20060;-77
2023/01/15 07:30:14;;;;;;;2.65;0.85;;;5.30;99.90;;;;;;5076671;28;20056;-80
2023/01/15 07:32:40;;;;;;;4.85;1.30;;;5.20;99.90;;;;;;5077173;28;20053;-78
2023/01/15 07:35:06;;;;;;;4.60;1.20;;;5.10;99.90;;;;;;5077202;28;20059;-77
2023/01/15 07:37:31;;;;;;;5.85;1.30;;;5.10;99.90;;;;;;5058921;28;20568;-78
2023/01/15 07:39:57;;;;;;;6.60;1.17;;;5.10;99.90;;;;;;5079921;28;20055;-77
2023/01/15 07:50:37;;;;;;;7.20;1.50;;;5.00;99.90;;;;;;5077921;28;20076;-76
2023/01/15 07:53:03;;;;;;;3.70;1.10;;;5.10;99.90;;;;;;5061543;28;20044;-81
2023/01/15 07:55:29;;;;;;;7.88;1.40;;;5.00;99.90;;;;;;5059048;28;20079;-77
2023/01/15 07:57:54;;;;;;;4.32;1.30;;;5.00;99.90;;;;;;5061075;28;20100;-76
2023/01/15 08:00:23;;;;;;;3.97;1.15;;;5.00;99.90;;;;;;5062092;28;20079;-78
2023/01/15 08:02:49;;;;;;;3.42;1.05;;;5.20;99.90;;;;;;5085093;28;20059;-75
2023/01/15 08:05:15;;;;;;;4.95;1.30;;;5.10;99.90;;;;;;5077340;28;20123;-79
2023/01/15 08:07:42;;;;;;;6.75;1.63;;;5.10;99.90;;;;;;5084128;28;20117;-78
2023/01/15 08:10:10;;;;;;;4.70;1.20;;;5.10;99.90;;;;;;5078393;28;20045;-77
2023/01/15 08:15:20;;;;;;;5.38;1.30;;;5.20;99.90;;;;;;5077255;28;20045;-78
2023/01/15 08:17:47;;;;;;;3.72;1.05;;;5.10;99.90;;;;;;5060469;28;20123;-78
2023/01/15 08:20:14;;;;;;;5.32;1.55;;;5.20;99.90;;;;;;5058963;28;20044;-76
2023/01/15 08:22:40;;;;;;;5.03;1.40;;;5.20;99.90;;;;;;5077312;28;20056;-77
2023/01/15 08:25:08;;;;;;;3.90;1.40;;;5.10;99.90;;;;;;5074596;28;20564;-77
2023/01/15 08:27:34;;;;;;;3.92;1.33;;;5.10;99.90;;;;;;5077054;28;20068;-78
2023/01/15 08:30:00;;;;;;;6.18;1.20;;;5.20;99.90;;;;;;5075379;28;20057;-76
2023/01/15 08:32:26;;;;;;;4.60;1.23;;;5.20;99.90;;;;;;5059799;28;20049;-75
2023/01/15 08:34:51;;;;;;;3.35;1.10;;;5.10;99.90;;;;;;5059854;28;20068;-74
2023/01/15 08:37:17;;;;;;;2.85;1.15;;;5.10;99.90;;;;;;5074994;28;20072;-76
2023/01/15 08:39:43;;;;;;;4.05;1.13;;;5.10;99.90;;;;;;5110993;28;20052;-74
2023/01/15 08:42:08;;;;;;;2.47;0.98;;;5.10;99.90;;;;;;5074755;28;20082;-74
2023/01/15 08:44:34;;;;;;;6.95;1.42;;;5.10;99.90;;;;;;5056939;28;20071;-75
2023/01/15 08:47:00;;;;;;;5.57;1.25;;;5.10;99.90;;;;;;5074326;28;20051;-77
2023/01/15 08:49:26;;;;;;;2.97;1.20;;;5.20;99.90;;;;;;5056182;28;20048;-78
2023/01/15 08:51:51;;;;;;;2.95;1.10;;;5.10;99.90;;;;;;5055527;28;20049;-77
2023/01/15 08:54:19;;;;;;;4.43;2.03;;;5.20;99.90;;;;;;5055981;28;20064;-74
2023/01/15 08:56:46;;;;;;;2.90;1.00;;;5.20;99.90;;;;;;5073670;28;20072;-77
2023/01/15 08:59:12;;;;;;;4.65;1.25;;;5.20;99.90;;;;;;5074336;28;20441;-78
2023/01/15 09:01:39;;;;;;;3.03;1.10;;;5.30;99.90;;;;;;5080370;28;20047;-78
2023/01/15 09:04:05;;;;;;;5.43;1.50;;;5.30;99.90;;;;;;5062462;28;20106;-78
2023/01/15 09:06:32;;;;;;;3.50;1.00;;;5.30;99.90;;;;;;5080638;28;20029;-76
2023/01/15 09:09:00;;;;;;;4.20;1.30;;;5.40;99.90;;;;;;5079586;28;20080;-77
2023/01/15 09:11:27;;;;;;;4.03;1.33;;;5.30;99.90;;;;;;5079807;28;20523;-78
2023/01/15 09:13:53;;;;;;;3.90;1.35;;;5.30;99.90;;;;;;5061068;28;20052;-79
2023/01/15 09:16:19;;;;;;;3.55;1.38;;;5.20;99.90;;;;;;5062189;28;20043;-76
2023/01/15 09:18:45;;;;;;;3.97;1.38;;;4.80;99.90;;;;;;5074785;28;20053;-78
2023/01/15 09:21:10;;;;;;;3.90;1.10;;;4.30;99.90;;;;;;5079428;28;20036;-77
2023/01/15 09:23:36;;;;;;;5.32;1.20;;;4.00;99.90;;;;;;5080304;28;20072;-78
2023/01/15 09:26:05;;;;;;;5.88;1.30;;;3.90;99.90;;;;;;5079319;28;20068;-78
2023/01/15 09:28:32;;;;;;;2.22;0.70;;;3.70;99.90;;;;;;5062808;28;20036;-77
2023/01/15 09:30:58;;;;;;;1.90;0.68;;;3.60;99.90;;;;;;5079877;28;20105;-80
2023/01/15 09:33:24;;;;;;;2.25;0.60;;;3.50;99.90;;;;;;5079840;28;20051;-81
2023/01/15 09:35:50;;;;;;;3.58;0.70;;;3.50;99.90;;;;;;5080336;28;20433;-77
2023/01/15 09:38:18;;;;;;;2.95;0.88;;;3.40;99.90;;;;;;5057674;28;20060;-79
2023/01/15 09:40:44;;;;;;;3.58;0.90;;;3.30;99.90;;;;;;5078056;28;20048;-78
2023/01/15 09:43:46;;;;;;;3.22;0.90;;;3.30;99.90;;;;;;5076054;28;20055;-75
2023/01/15 09:46:40;;;;;;;1.48;0.75;;;3.30;99.90;;;;;;5076656;28;20047;-78
2023/01/15 09:49:25;;;;;;;3.22;0.90;;;3.30;99.90;;;;;;5076806;28;20049;-82
2023/01/15 09:52:11;;;;;;;3.50;1.17;;;3.20;99.90;;;;;;5092819;28;20044;-79
2023/01/15 09:54:59;;;;;;;8.05;1.52;;;3.10;99.90;;;;;;5092176;28;20492;-79
2023/01/15 09:57:27;;;;;;;5.93;1.10;;;3.10;99.90;;;;;;5070841;28;20037;-81
2023/01/15 10:00:00;;;;;;;4.95;1.60;;;3.30;99.90;;;;;;5059203;28;20607;-80
2023/01/15 10:02:53;;;;;;;5.10;1.30;;;3.20;99.90;;;;;;5078148;28;20037;-81
2023/01/15 10:05:54;;;;;;;3.40;1.23;;;3.20;99.90;;;;;;5078558;28;20052;-80
2023/01/15 10:08:29;;;;;;;3.90;1.58;;;3.30;99.90;;;;;;5052132;28;20516;-79
2023/01/15 10:11:01;;;;;;;5.13;1.55;;;3.30;99.90;;;;;;5092438;28;20118;-79
2023/01/15 10:13:44;;;;;;;4.20;1.10;;;3.40;99.90;;;;;;5078374;28;20051;-79
2023/01/15 10:16:16;;;;;;;2.80;1.00;;;3.60;99.90;;;;;;5064567;28;20037;-79
2023/01/15 10:18:42;;;;;;;2.53;0.80;;;3.70;99.90;;;;;;5073249;28;20711;-78
2023/01/15 10:21:54;;;;;;;2.53;0.90;;;3.70;99.90;;;;;;5076880;28;20048;-77
2023/01/15 10:24:32;;;;;;;2.88;1.15;;;3.70;99.90;;;;;;5063622;28;20056;-80
2023/01/15 10:26:59;;;;;;;3.50;1.17;;;4.30;99.90;;;;;;5079385;28;20106;-77
2023/01/15 10:29:42;;;;;;;2.47;1.35;;;3.80;99.90;;;;;;5076925;28;20139;-77
2023/01/15 10:32:11;;;;;;;2.75;1.05;;;3.70;99.90;;;;;;5078778;28;20040;-78
2023/01/15 10:35:02;;;;;;;3.75;1.20;;;3.80;99.90;;;;;;5078401;28;20134;-78
2023/01/15 10:37:40;;;;;;;3.15;1.50;;;3.80;99.90;;;;;;5100984;28;20044;-81
2023/01/15 10:40:24;;;;;;;5.47;1.20;;;3.80;99.90;;;;;;5077599;28;20050;-82
2023/01/15 10:42:57;;;;;;;5.82;2.35;;;3.80;99.90;;;;;;5077154;28;20088;-80
2023/01/15 10:45:49;;;;;;;3.20;0.95;;;3.80;99.90;;;;;;5078612;28;20059;-85
2023/01/15 10:48:37;;;;;;;6.53;1.40;;;4.00;99.90;;;;;;5070715;28;20080;-79
2023/01/15 10:51:32;;;;;;;3.95;1.42;;;4.00;99.90;;;;;;5077042;28;20056;-80
2023/01/15 10:54:20;;;;;;;6.88;1.42;;;4.30;99.90;;;;;;5052798;28;20053;-77
2023/01/15 10:57:30;;;;;;;4.10;1.50;;;4.30;99.90;;;;;;5073692;28;20096;-78
2023/01/15 10:59:58;;;;;;;4.20;1.70;;;4.30;99.90;;;;;;5053464;28;20055;-78
2023/01/15 11:02:48;;;;;;;5.47;1.20;;;4.30;99.90;;;;;;5061566;28;20071;-78
2023/01/15 11:05:20;;;;;;;5.70;1.45;;;4.40;99.90;;;;;;5078298;28;20122;-81
2023/01/15 11:07:51;;;;;;;6.32;1.48;;;4.40;99.90;;;;;;5075389;28;20076;-84
2023/01/15 11:10:20;;;;;;;8.63;1.52;;;4.50;99.90;;;;;;5066045;28;20044;-81
2023/01/15 11:21:29;;;;;;;6.10;1.73;;;4.70;99.90;;;;;;5068323;28;20048;-77
2023/01/15 11:23:57;;;;;;;4.65;1.30;;;4.70;99.90;;;;;;5060457;28;20048;-78
2023/01/15 11:26:29;;;;;;;3.35;1.20;;;4.80;99.90;;;;;;5077544;28;20056;-79
2023/01/15 11:28:57;;;;;;;5.32;1.27;;;4.90;99.90;;;;;;5059160;28;20048;-79
2023/01/15 11:31:34;;;;;;;7.78;1.88;;;5.00;99.90;;;;;;5077968;28;20071;-76
2023/01/15 11:34:02;;;;;;;5.18;2.08;;;5.00;99.90;;;;;;5088223;28;20058;-79
2023/01/15 11:36:29;;;;;;;3.70;1.50;;;5.10;99.90;;;;;;5077114;28;20044;-78
2023/01/15 11:38:55;;;;;;;4.00;1.27;;;5.10;99.90;;;;;;5076448;28;20044;-79
2023/01/15 11:52:33;;;;;;;3.55;1.60;;;5.20;99.90;;;;;;5077154;28;20076;-80
2023/01/15 11:55:01;;;;;;;6.18;1.48;;;5.30;99.90;;;;;;5075206;28;20078;-80
2023/01/15 11:57:30;;;;;;;4.78;1.95;;;5.40;99.90;;;;;;5045166;28;20049;-79
2023/01/15 11:59:57;;;;;;;4.85;1.52;;;5.60;99.90;;;;;;5075655;28;20056;-81
2023/01/15 12:02:48;;;;;;;4.28;1.35;;;5.80;99.90;;;;;;5075633;28;20045;-80
2023/01/15 12:05:17;;;;;;;5.15;1.50;;;5.80;99.90;;;;;;5071836;28;20044;-81
2023/01/15 12:07:45;;;;;;;6.35;1.60;;;6.00;99.90;;;;;;5062296;28;20451;-82
2023/01/15 12:11:02;;;;;;;5.15;1.20;;;6.00;99.90;;;;;;5058592;28;20044;-81
2023/01/15 12:13:30;;;;;;;4.35;1.40;;;6.00;99.90;;;;;;5074824;28;20041;-82
2023/01/15 12:16:03;;;;;;;5.07;2.13;;;6.10;99.90;;;;;;5073472;28;20044;-84
2023/01/15 12:18:56;;;;;;;3.53;1.25;;;6.20;99.90;;;;;;5077298;28;20048;-83
2023/01/15 12:21:36;;;;;;;4.78;1.83;;;6.10;99.90;;;;;;5075642;28;20048;-82
2023/01/15 12:24:42;;;;;;;5.47;1.23;;;6.00;99.90;;;;;;5073956;28;20050;-79
2023/01/15 12:27:20;;;;;;;5.97;1.40;;;5.90;99.90;;;;;;5077407;28;20052;-79
2023/01/15 12:29:53;;;;;;;4.38;1.58;;;6.00;99.90;;;;;;5058849;28;20053;-80
2023/01/15 12:32:30;;;;;;;4.70;1.45;;;5.90;99.90;;;;;;5060439;28;20147;-80
2023/01/15 12:35:10;;;;;;;6.55;1.60;;;5.90;99.90;;;;;;5076349;28;20053;-76
2023/01/15 12:37:51;;;;;;;3.03;1.25;;;6.00;99.90;;;;;;5075244;28;20048;-77
2023/01/15 12:40:23;;;;;;;5.78;1.40;;;6.10;99.90;;;;;;5077519;28;20092;-79
2023/01/15 12:45:44;;;;;;;5.45;1.60;;;6.20;99.90;;;;;;5076437;28;20049;-78
2023/01/15 12:48:31;;;;;;;4.45;1.30;;;6.00;99.90;;;;;;5077059;28;20052;-79
2023/01/15 12:51:00;;;;;;;7.32;2.05;;;5.80;99.90;;;;;;5075081;28;20051;-76
2023/01/15 12:53:30;;;;;;;5.40;1.55;;;5.80;99.90;;;;;;5077317;28;20048;-86
2023/01/15 12:56:05;;;;;;;6.22;1.33;;;5.80;99.90;;;;;;5076207;28;20045;-83
2023/01/15 12:58:42;;;;;;;4.15;1.02;;;5.80;99.90;;;;;;5075882;28;20052;-76
2023/01/15 13:01:17;;;;;;;4.45;1.30;;;5.90;99.90;;;;;;5077124;28;20104;-80
2023/01/15 13:04:05;;;;;;;3.75;1.25;;;6.00;99.90;;;;;;5075470;28;20063;-82
2023/01/15 13:06:32;;;;;;;4.30;1.27;;;5.80;99.90;;;;;;5077334;28;20044;-79
2023/01/15 13:09:09;;;;;;;4.32;1.45;;;5.70;99.90;;;;;;5075986;28;20048;-78
2023/01/15 13:11:35;;;;;;;4.60;1.40;;;5.70;99.90;;;;;;5075504;28;20044;-79
2023/01/15 13:14:01;;;;;;;5.65;1.48;;;5.70;99.90;;;;;;5076678;28;20102;-78
2023/01/15 13:16:44;;;;;;;3.58;1.35;;;5.60;99.90;;;;;;5074840;28;20053;-80
2023/01/15 13:19:12;;;;;;;3.78;1.20;;;5.60;99.90;;;;;;5076918;28;20060;-80
2023/01/15 13:21:40;;;;;;;3.28;1.52;;;5.40;99.90;;;;;;5077310;28;20218;-80
2023/01/15 13:24:34;;;;;;;3.00;1.02;;;5.30;99.90;;;;;;5076144;28;20051;-80
2023/01/15 13:27:18;;;;;;;2.45;0.95;;;5.10;99.90;;;;;;5076688;28;20160;-78
2023/01/15 13:30:02;;;;;;;4.53;1.30;;;5.00;99.90;;;;;;5074700;28;20051;-75
2023/01/15 13:32:41;;;;;;;2.85;1.15;;;4.70;99.90;;;;;;5075958;28;20055;-79
2023/01/15 13:35:34;;;;;;;3.45;1.27;;;4.60;99.90;;;;;;5076587;28;20114;-82
2023/01/15 13:38:05;;;;;;;4.53;0.98;;;4.60;99.90;;;;;;5074484;28;20565;-83
2023/01/15 13:40:42;;;;;;;4.07;1.00;;;4.60;99.90;;;;;;5076769;28;20047;-78
2023/01/15 13:43:17;;;;;;;4.80;1.75;;;4.70;99.90;;;;;;5077358;28;20091;-82
2023/01/15 13:45:48;;;;;;;6.15;1.50;;;4.90;99.90;;;;;;5075808;28;20500;-77
2023/01/15 13:48:27;;;;;;;6.18;1.52;;;5.10;99.90;;;;;;5080118;28;20598;-78
2023/01/15 13:50:58;;;;;;;6.28;1.67;;;5.40;99.90;;;;;;5077911;28;20056;-83
2023/01/15 13:53:47;;;;;;;6.03;1.50;;;5.60;99.90;;;;;;5079874;28;20055;-79
2023/01/15 13:56:24;;;;;;;5.53;1.30;;;5.80;99.90;;;;;;5078296;28;20127;-79
2023/01/15 13:58:57;;;;;;;4.95;2.30;;;5.90;99.90;;;;;;5077854;28;20052;-82
2023/01/15 14:01:25;;;;;;;3.80;1.40;;;5.90;99.90;;;;;;5080050;28;20049;-79
2023/01/15 14:04:11;;;;;;;4.28;1.50;;;6.10;99.90;;;;;;5077445;28;20108;-79
2023/01/15 14:06:41;;;;;;;4.03;1.50;;;6.10;99.90;;;;;;5076992;28;20051;-79
2023/01/15 14:09:33;;;;;;;5.90;1.45;;;6.00;99.90;;;;;;5103114;28;20048;-78
2023/01/15 14:12:17;;;;;;;4.50;1.38;;;6.00;99.90;;;;;;5098228;28;20063;-79
2023/01/15 14:14:43;;;;;;;4.57;1.40;;;6.00;99.90;;;;;;5078011;28;20048;-81